TAF Text Data
IDs:
Format:
Raw Decoded Include METAR

Data at: 1326 UTC 10 Jul 2020

KBDL 101134Z 1012/1118 10004KT P6SM OVC008
  FM101300 11006KT P6SM OVC060
  FM101900 13008KT P6SM -SHRA OVC020
  FM102300 10009G23KT 4SM -SHRA BR OVC015
  FM110900 16011G23KT 5SM BR VCSH OVC008
  FM111300 19009KT P6SM BKN020
  FM111700 19011G23KT P6SM BKN045